createdAt,value
2023-02-02T00:04:37.026Z,4.35
2023-02-02T00:14:41.182Z,4.45
2023-02-02T00:24:46.158Z,4.55
2023-02-02T00:34:52.338Z,4.54
2023-02-02T00:45:20.356Z,4.63
2023-02-02T00:55:35.258Z,4.69
2023-02-02T01:05:39.776Z,4.74
2023-02-02T01:15:43.575Z,4.80
2023-02-02T01:26:16.457Z,4.78
2023-02-02T01:36:22.749Z,4.79
2023-02-02T01:46:35.724Z,4.79
2023-02-02T01:56:45.017Z,4.78
2023-02-02T02:06:49.038Z,4.69
2023-02-02T02:17:46.370Z,4.56
2023-02-02T02:28:29.946Z,4.38
2023-02-02T02:38:33.657Z,4.32
2023-02-02T02:48:37.869Z,4.18
2023-02-02T02:59:00.367Z,4.10
2023-02-02T03:09:20.009Z,4.07
2023-02-02T03:19:23.853Z,4.11
2023-02-02T03:29:34.083Z,3.99
2023-02-02T03:39:45.955Z,3.91
2023-02-02T03:49:49.615Z,3.96
2023-02-02T03:59:53.493Z,3.98
2023-02-02T04:09:57.155Z,4.06
2023-02-02T04:20:04.842Z,4.18
2023-02-02T04:30:09.691Z,4.27
2023-02-02T04:40:14.648Z,4.48
2023-02-02T04:50:18.724Z,4.73
2023-02-02T05:00:28.183Z,5.00
2023-02-02T05:11:33.342Z,5.18
2023-02-02T05:21:41.687Z,5.30
2023-02-02T05:31:45.969Z,5.22
2023-02-02T05:41:55.439Z,5.31
2023-02-02T05:51:59.941Z,5.41
2023-02-02T06:02:03.709Z,5.33
2023-02-02T06:12:07.724Z,5.29
2023-02-02T06:22:11.346Z,5.21
2023-02-02T06:32:15.006Z,5.33
2023-02-02T06:42:21.700Z,5.35
2023-02-02T06:52:26.658Z,5.40
2023-02-02T07:02:30.428Z,5.44
2023-02-02T07:12:34.323Z,5.48
2023-02-02T07:22:41.926Z,5.53
2023-02-02T07:32:49.272Z,5.52
2023-02-02T07:43:53.337Z,5.57
2023-02-02T07:53:58.884Z,5.50
2023-02-02T08:04:03.662Z,5.53
2023-02-02T08:14:07.863Z,5.84
2023-02-02T08:24:11.630Z,6.46
2023-02-02T08:34:22.712Z,6.34
2023-02-02T08:44:51.806Z,5.40
2023-02-02T08:54:58.475Z,5.21
2023-02-02T09:05:02.439Z,5.42
2023-02-02T09:15:06.402Z,5.81
2023-02-02T09:25:10.238Z,5.24
2023-02-02T09:35:14.044Z,4.91
2023-02-02T09:45:39.502Z,4.66
2023-02-02T09:55:50.404Z,4.39
2023-02-02T10:06:26.147Z,4.44
2023-02-02T10:16:31.591Z,4.53
2023-02-02T10:26:43.916Z,4.43
2023-02-02T10:37:10.670Z,3.95
2023-02-02T10:47:23.575Z,3.66
2023-02-02T10:57:53.059Z,4.05
2023-02-02T11:07:57.455Z,4.59
2023-02-02T11:18:26.809Z,4.75
2023-02-02T11:28:36.116Z,4.61
2023-02-02T11:38:39.928Z,4.51
2023-02-02T11:48:58.862Z,4.25
2023-02-02T11:59:04.390Z,4.40
2023-02-02T12:09:14.614Z,4.78
2023-02-02T12:19:40.519Z,4.85
2023-02-02T12:29:53.295Z,4.56
2023-02-02T12:40:18.363Z,3.89
2023-02-02T12:50:25.480Z,3.86
2023-02-02T13:01:00.472Z,3.91
2023-02-02T13:11:29.946Z,4.45
2023-02-02T13:21:37.468Z,4.43
2023-02-02T13:31:56.904Z,4.50
2023-02-02T13:42:03.114Z,4.30
2023-02-02T13:52:45.229Z,4.10
2023-02-02T14:02:56.517Z,3.95
2023-02-02T14:13:32.648Z,3.92
2023-02-02T14:23:54.209Z,4.16
2023-02-02T14:34:34.289Z,3.97
2023-02-02T14:45:24.793Z,3.60
2023-02-02T14:55:29.447Z,3.50
2023-02-02T15:05:39.228Z,3.39
2023-02-02T15:15:45.669Z,3.44
2023-02-02T15:26:18.320Z,3.57
2023-02-02T15:36:35.926Z,3.46
2023-02-02T15:46:39.694Z,3.33
2023-02-02T15:56:43.424Z,2.96
2023-02-02T16:06:48.780Z,2.76
2023-02-02T16:16:52.560Z,2.37
2023-02-02T16:26:59.781Z,2.09
2023-02-02T16:37:12.783Z,1.92
2023-02-02T16:47:42.773Z,1.96
2023-02-02T16:57:49.684Z,1.97
2023-02-02T17:08:05.682Z,1.87
2023-02-02T17:18:10.255Z,1.79
2023-02-02T17:28:19.366Z,1.70
2023-02-02T17:38:24.876Z,1.60
2023-02-02T17:48:28.674Z,1.24
2023-02-02T17:58:32.417Z,0.96
2023-02-02T18:08:36.019Z,0.95
2023-02-02T18:18:40.269Z,1.14
2023-02-02T18:28:44.653Z,1.30
2023-02-02T18:38:50.923Z,1.61
2023-02-02T18:48:55.981Z,1.52
2023-02-02T18:59:00.080Z,1.55
2023-02-02T19:09:05.714Z,1.79
2023-02-02T19:19:25.476Z,1.90
2023-02-02T19:29:36.465Z,1.70
2023-02-02T19:39:40.645Z,1.74
2023-02-02T19:49:44.754Z,1.80
2023-02-02T19:59:51.644Z,1.55
2023-02-02T20:10:11.470Z,1.55
2023-02-02T20:20:33.108Z,1.64
2023-02-02T20:30:43.584Z,1.77
2023-02-02T20:40:48.506Z,1.84
2023-02-02T20:50:52.781Z,1.76
2023-02-02T21:00:57.338Z,1.73
2023-02-02T21:11:22.009Z,1.70
2023-02-02T21:21:26.023Z,1.46
2023-02-02T21:31:30.350Z,1.43
2023-02-02T21:41:34.642Z,1.35
2023-02-02T21:51:38.876Z,1.31
2023-02-02T22:01:45.105Z,1.43
2023-02-02T22:12:00.943Z,1.27
2023-02-02T22:22:16.871Z,1.28
2023-02-02T22:32:20.532Z,1.28
2023-02-02T22:42:24.273Z,1.48
2023-02-02T22:52:28.120Z,1.44
2023-02-02T23:02:33.140Z,1.59
2023-02-02T23:12:37.129Z,1.68
2023-02-02T23:22:40.826Z,1.66
2023-02-02T23:32:44.732Z,1.67
2023-02-02T23:42:48.501Z,1.74
2023-02-02T23:52:52.785Z,1.75
